createdAt,value
2018-06-01T00:00:20.124Z,17.30
2018-06-01T00:02:49.104Z,17.30
2018-06-01T00:05:17.076Z,17.20
2018-06-01T00:07:44.472Z,17.20
2018-06-01T00:10:11.800Z,17.10
2018-06-01T00:12:39.169Z,17.10
2018-06-01T00:15:05.781Z,17.10
2018-06-01T00:17:33.164Z,16.90
2018-06-01T00:20:00.557Z,16.80
2018-06-01T00:22:28.960Z,16.80
2018-06-01T00:24:56.304Z,16.70
2018-06-01T00:27:23.620Z,16.70
2018-06-01T00:29:52.608Z,16.70
2018-06-01T00:32:19.941Z,16.80
2018-06-01T00:34:47.320Z,16.70
2018-06-01T00:37:16.765Z,16.70
2018-06-01T00:39:44.052Z,16.70
2018-06-01T00:42:12.429Z,16.70
2018-06-01T00:44:40.788Z,16.70
2018-06-01T00:47:10.212Z,16.60
2018-06-01T00:49:36.761Z,16.70
2018-06-01T00:52:04.368Z,16.70
2018-06-01T00:54:44.307Z,16.70
2018-06-01T00:57:10.932Z,16.70
2018-06-01T00:59:37.474Z,16.70
2018-06-01T01:02:05.574Z,16.60
2018-06-01T01:04:33.244Z,16.60
2018-06-01T01:07:01.633Z,16.60
2018-06-01T01:09:31.049Z,16.60
2018-06-01T01:11:58.421Z,16.70
2018-06-01T01:14:25.065Z,16.70
2018-06-01T01:16:52.433Z,16.80
2018-06-01T01:19:19.825Z,16.90
2018-06-01T01:21:46.480Z,16.90
2018-06-01T01:24:13.809Z,17.00
2018-06-01T01:26:40.462Z,17.00
2018-06-01T01:29:07.821Z,16.90
2018-06-01T01:31:35.212Z,16.90
2018-06-01T01:34:04.109Z,16.80
2018-06-01T01:36:31.524Z,16.70
2018-06-01T01:38:58.952Z,16.70
2018-06-01T01:41:26.329Z,16.70
2018-06-01T01:43:53.672Z,16.70
2018-06-01T01:46:22.072Z,16.80
2018-06-01T01:48:49.745Z,16.70
2018-06-01T01:51:18.156Z,16.60
2018-06-01T01:53:46.529Z,16.60
2018-06-01T01:56:13.848Z,16.60
2018-06-01T01:58:41.562Z,16.60
2018-06-01T02:01:09.141Z,16.50
2018-06-01T02:03:37.429Z,16.60
2018-06-01T02:06:04.826Z,16.50
2018-06-01T02:08:34.324Z,16.40
2018-06-01T02:11:04.597Z,16.40
2018-06-01T02:13:33.041Z,16.40
2018-06-01T02:16:01.088Z,16.40
2018-06-01T02:18:28.376Z,16.30
2018-06-01T02:20:56.772Z,16.30
2018-06-01T02:23:25.166Z,16.30
2018-06-01T02:25:53.240Z,16.30
2018-06-01T02:28:19.952Z,16.30
2018-06-01T02:30:49.426Z,16.20
2018-06-01T02:33:17.282Z,16.20
2018-06-01T02:35:44.617Z,16.20
2018-06-01T02:38:11.873Z,16.20
2018-06-01T02:40:40.127Z,16.30
2018-06-01T02:43:09.124Z,16.30
2018-06-01T02:45:35.718Z,16.20
2018-06-01T02:48:03.063Z,16.30
2018-06-01T02:50:30.396Z,16.30
2018-06-01T02:53:03.692Z,16.30
2018-06-01T02:55:31.321Z,16.30
2018-06-01T02:58:01.649Z,16.20
2018-06-01T03:00:34.113Z,16.20
2018-06-01T03:03:04.161Z,16.20
2018-06-01T03:05:31.504Z,16.20
2018-06-01T03:08:00.121Z,16.20
2018-06-01T03:10:27.412Z,16.30
2018-06-01T03:12:56.683Z,16.30
2018-06-01T03:15:32.242Z,16.30
2018-06-01T03:18:00.676Z,16.30
2018-06-01T03:20:29.048Z,16.30
2018-06-01T03:22:56.709Z,16.30
2018-06-01T03:25:23.347Z,16.30
2018-06-01T03:28:00.240Z,16.20
2018-06-01T03:30:26.945Z,16.20
2018-06-01T03:32:53.568Z,16.30
2018-06-01T03:35:21.713Z,16.30
2018-06-01T03:37:49.100Z,16.30
2018-06-01T03:40:15.739Z,16.30
2018-06-01T03:42:43.106Z,16.40
2018-06-01T03:45:11.402Z,16.30
2018-06-01T03:47:43.475Z,16.40
2018-06-01T03:50:15.957Z,16.30
2018-06-01T03:52:43.324Z,16.30
2018-06-01T03:55:11.772Z,16.30
2018-06-01T03:57:42.768Z,16.40
2018-06-01T04:00:11.364Z,16.40
2018-06-01T04:02:40.989Z,16.40
2018-06-01T04:05:08.313Z,16.50
2018-06-01T04:07:46.476Z,16.60
2018-06-01T04:10:14.818Z,16.90
2018-06-01T04:12:49.389Z,17.30
2018-06-01T04:15:18.732Z,17.40
2018-06-01T04:17:45.277Z,17.40
2018-06-01T04:20:19.591Z,17.50
2018-06-01T04:22:52.077Z,18.00
2018-06-01T04:25:23.224Z,18.30
2018-06-01T04:27:51.184Z,18.70
2018-06-01T04:30:19.548Z,18.70
2018-06-01T04:32:46.160Z,19.10
2018-06-01T04:35:14.245Z,19.70
2018-06-01T04:37:41.003Z,19.70
2018-06-01T04:40:08.362Z,19.20
2018-06-01T04:42:34.928Z,19.10
2018-06-01T04:45:01.560Z,18.60
2018-06-01T04:47:28.930Z,17.60
2018-06-01T04:49:56.444Z,18.00
2018-06-01T04:52:26.964Z,18.20
2018-06-01T04:55:04.480Z,18.20
2018-06-01T04:57:33.038Z,18.00
2018-06-01T04:59:59.620Z,17.30
2018-06-01T05:02:29.409Z,17.00
2018-06-01T05:04:56.786Z,17.20
2018-06-01T05:07:23.976Z,17.20
2018-06-01T05:09:54.387Z,17.40
2018-06-01T05:12:21.729Z,17.60
2018-06-01T05:14:51.316Z,17.60
2018-06-01T05:17:18.636Z,17.60
2018-06-01T05:19:45.281Z,17.70
2018-06-01T05:22:11.845Z,17.60
2018-06-01T05:24:40.213Z,17.60
2018-06-01T05:27:12.732Z,17.50
2018-06-01T05:29:44.476Z,17.70
2018-06-01T05:32:14.185Z,17.70
2018-06-01T05:34:41.568Z,17.40
2018-06-01T05:37:10.152Z,17.40
2018-06-01T05:39:39.680Z,17.30
2018-06-01T05:42:06.341Z,17.60
2018-06-01T05:44:35.349Z,17.30
2018-06-01T05:47:04.273Z,17.40
2018-06-01T05:49:33.260Z,17.50
2018-06-01T05:52:01.861Z,17.50
2018-06-01T05:54:35.102Z,17.30
2018-06-01T05:57:09.977Z,17.40
2018-06-01T05:59:37.565Z,17.40
2018-06-01T06:02:05.972Z,17.30
2018-06-01T06:04:36.368Z,17.60
2018-06-01T06:07:05.298Z,17.80
2018-06-01T06:09:33.285Z,18.00
2018-06-01T06:12:03.407Z,18.00
2018-06-01T06:14:33.748Z,18.30
2018-06-01T06:17:01.115Z,18.70
2018-06-01T06:19:27.669Z,18.70
2018-06-01T06:21:55.021Z,18.90
2018-06-01T06:24:22.697Z,18.90
2018-06-01T06:26:49.266Z,19.30
2018-06-01T06:29:15.903Z,19.20
2018-06-01T06:31:53.029Z,19.30
2018-06-01T06:34:21.385Z,19.10
2018-06-01T06:36:48.684Z,19.30
2018-06-01T06:39:18.877Z,19.30
2018-06-01T06:41:50.365Z,19.30
2018-06-01T06:44:23.909Z,18.90
2018-06-01T06:46:53.383Z,18.50
2018-06-01T06:49:24.550Z,18.60
2018-06-01T06:51:53.128Z,18.60
2018-06-01T06:54:30.324Z,19.30
2018-06-01T06:57:03.737Z,19.30
2018-06-01T06:59:31.097Z,19.30
2018-06-01T07:01:59.591Z,18.80
2018-06-01T07:04:26.197Z,19.10
2018-06-01T07:06:53.932Z,19.30
2018-06-01T07:09:22.901Z,18.60
2018-06-01T07:11:49.577Z,18.60
2018-06-01T07:14:17.056Z,18.60
2018-06-01T07:16:49.533Z,18.70
2018-06-01T07:19:23.769Z,19.10
2018-06-01T07:21:50.564Z,19.20
2018-06-01T07:24:22.089Z,19.30
2018-06-01T07:26:49.511Z,19.10
2018-06-01T07:29:22.058Z,19.00
2018-06-01T07:31:53.520Z,18.90
2018-06-01T07:34:20.201Z,19.20
2018-06-01T07:36:47.637Z,19.50
2018-06-01T07:39:15.000Z,19.50
2018-06-01T07:41:42.677Z,19.50
2018-06-01T07:44:09.241Z,19.50
2018-06-01T07:46:39.353Z,19.70
2018-06-01T07:49:12.004Z,19.60
2018-06-01T07:51:43.297Z,19.70
2018-06-01T07:54:10.307Z,19.70
2018-06-01T07:56:51.142Z,19.60
2018-06-01T07:59:21.142Z,19.60
2018-06-01T08:01:50.159Z,19.50
2018-06-01T08:04:17.547Z,19.50
2018-06-01T08:06:46.849Z,19.60
2018-06-01T08:09:14.866Z,20.10
2018-06-01T08:11:42.103Z,20.00
2018-06-01T08:14:08.669Z,19.90
2018-06-01T08:16:44.196Z,19.90
2018-06-01T08:19:14.534Z,20.60
2018-06-01T08:21:41.187Z,21.30
2018-06-01T08:24:07.756Z,20.70
2018-06-01T08:26:34.376Z,20.60
2018-06-01T08:29:02.988Z,20.70
2018-06-01T08:31:36.444Z,20.90
2018-06-01T08:34:06.012Z,20.90
2018-06-01T08:36:32.585Z,20.40
2018-06-01T08:39:24.293Z,20.20
2018-06-01T08:41:51.673Z,20.60
2018-06-01T08:44:19.041Z,20.30
2018-06-01T08:46:48.656Z,20.30
2018-06-01T08:49:16.124Z,20.30
2018-06-01T08:51:42.788Z,20.40
2018-06-01T08:54:17.608Z,20.70
2018-06-01T08:56:51.050Z,20.70
2018-06-01T08:59:18.726Z,20.70
2018-06-01T09:01:48.125Z,21.80
2018-06-01T09:04:14.769Z,21.80
2018-06-01T09:06:44.603Z,21.30
2018-06-01T09:09:11.162Z,21.30
2018-06-01T09:11:40.881Z,20.90
2018-06-01T09:14:08.537Z,21.10
2018-06-01T09:16:36.212Z,20.90
2018-06-01T09:19:06.569Z,20.60
2018-06-01T09:21:34.120Z,20.60
2018-06-01T09:24:00.793Z,20.60
2018-06-01T09:26:27.415Z,20.70
2018-06-01T09:28:53.989Z,21.00
2018-06-01T09:31:20.540Z,20.90
2018-06-01T09:33:47.181Z,21.10
2018-06-01T09:36:17.685Z,21.80
2018-06-01T09:38:45.044Z,23.30
2018-06-01T09:41:16.449Z,23.10
2018-06-01T09:43:44.829Z,23.10
2018-06-01T09:46:11.569Z,23.20
2018-06-01T09:48:38.153Z,23.90
2018-06-01T09:51:04.789Z,24.10
2018-06-01T09:53:32.448Z,24.20
2018-06-01T09:55:59.204Z,23.80
2018-06-01T09:58:35.095Z,23.40
2018-06-01T10:01:07.784Z,24.00
2018-06-01T10:03:34.417Z,24.40
2018-06-01T10:06:01.061Z,24.50
2018-06-01T10:08:27.737Z,24.60
2018-06-01T10:10:54.300Z,24.40
2018-06-01T10:13:21.116Z,24.60
2018-06-01T10:15:49.517Z,24.40
2018-06-01T10:18:17.813Z,24.40
2018-06-01T10:20:45.936Z,24.30
2018-06-01T10:23:13.352Z,24.30
2018-06-01T10:25:39.992Z,24.60
2018-06-01T10:28:06.748Z,25.10
2018-06-01T10:30:33.505Z,25.20
2018-06-01T10:33:04.025Z,25.00
2018-06-01T10:35:31.722Z,24.90
2018-06-01T10:38:03.320Z,25.30
2018-06-01T10:40:30.060Z,24.70
2018-06-01T10:42:56.616Z,24.90
2018-06-01T10:45:24.246Z,24.90
2018-06-01T10:47:51.017Z,25.00
2018-06-01T10:50:18.680Z,25.00
2018-06-01T10:52:45.339Z,24.50
2018-06-01T10:55:12.752Z,24.30
2018-06-01T10:57:39.353Z,24.50
2018-06-01T11:00:06.045Z,24.60
2018-06-01T11:02:32.693Z,24.70
2018-06-01T11:05:00.124Z,24.80
2018-06-01T11:07:26.868Z,24.80
2018-06-01T11:09:53.628Z,24.90
2018-06-01T11:12:20.376Z,25.50
2018-06-01T11:14:47.128Z,25.00
2018-06-01T11:17:13.809Z,24.80
2018-06-01T11:19:41.144Z,24.80
2018-06-01T11:22:07.904Z,24.80
2018-06-01T11:24:35.717Z,25.20
2018-06-01T11:27:02.369Z,25.10
2018-06-01T11:29:29.080Z,24.90
2018-06-01T11:31:55.760Z,25.20
2018-06-01T11:34:22.472Z,25.20
2018-06-01T11:36:49.848Z,25.40
2018-06-01T11:39:16.604Z,25.40
2018-06-01T11:41:43.972Z,25.60
2018-06-01T11:44:10.724Z,25.50
2018-06-01T11:46:37.464Z,25.60
2018-06-01T11:49:04.806Z,25.30
2018-06-01T11:51:31.508Z,25.30
2018-06-01T11:53:58.144Z,26.00
2018-06-01T11:56:24.840Z,25.80
2018-06-01T11:58:52.577Z,25.30
2018-06-01T12:01:19.159Z,25.10
2018-06-01T12:03:45.808Z,25.20
2018-06-01T12:06:12.515Z,25.20
2018-06-01T12:08:39.480Z,25.00
2018-06-01T12:11:06.267Z,25.30
2018-06-01T12:13:33.833Z,25.60
2018-06-01T12:16:01.600Z,25.50
2018-06-01T12:18:28.917Z,25.60
2018-06-01T12:20:55.804Z,25.70
2018-06-01T12:23:22.476Z,25.90
2018-06-01T12:25:49.218Z,26.00
2018-06-01T12:28:16.668Z,25.60
2018-06-01T12:30:43.425Z,25.60
2018-06-01T12:33:10.181Z,25.60
2018-06-01T12:35:38.033Z,25.50
2018-06-01T12:38:05.524Z,25.50
2018-06-01T12:40:32.915Z,25.50
2018-06-01T12:42:59.654Z,25.50
2018-06-01T12:45:26.324Z,26.30
2018-06-01T12:47:55.693Z,25.90
2018-06-01T12:50:22.368Z,26.00
2018-06-01T12:52:49.115Z,26.60
2018-06-01T12:55:15.905Z,26.90
2018-06-01T12:57:43.300Z,26.90
2018-06-01T13:00:10.808Z,26.90
2018-06-01T13:02:38.386Z,26.70
2018-06-01T13:05:05.172Z,26.70
2018-06-01T13:07:31.808Z,26.30
2018-06-01T13:10:00.448Z,26.60
2018-06-01T13:12:27.585Z,27.20
2018-06-01T13:14:55.020Z,27.20
2018-06-01T13:17:21.776Z,27.10
2018-06-01T13:19:49.126Z,26.60
2018-06-01T13:22:16.397Z,26.60
2018-06-01T13:24:43.136Z,26.10
2018-06-01T13:27:09.916Z,25.80
2018-06-01T13:29:36.676Z,25.70
2018-06-01T13:32:06.379Z,25.10
2018-06-01T13:34:35.079Z,24.80
2018-06-01T13:37:10.423Z,24.50
2018-06-01T13:39:38.940Z,23.10
2018-06-01T13:42:05.795Z,23.00
2018-06-01T13:44:32.437Z,22.70
2018-06-01T13:46:59.213Z,22.40
2018-06-01T13:49:25.957Z,22.20
2018-06-01T13:51:54.330Z,21.70
2018-06-01T13:54:21.898Z,21.60
2018-06-01T13:56:48.577Z,21.80
2018-06-01T13:59:15.325Z,22.40
2018-06-01T14:01:43.720Z,22.60
2018-06-01T14:04:11.475Z,22.60
2018-06-01T14:06:38.042Z,23.20
2018-06-01T14:09:05.104Z,23.50
2018-06-01T14:11:31.754Z,23.50
2018-06-01T14:14:02.168Z,23.80
2018-06-01T14:16:28.921Z,24.00
2018-06-01T14:18:56.460Z,24.20
2018-06-01T14:21:24.101Z,24.50
2018-06-01T14:23:50.909Z,24.50
2018-06-01T14:26:17.581Z,24.30
2018-06-01T14:28:44.136Z,24.70
2018-06-01T14:31:10.961Z,24.90
2018-06-01T14:33:38.282Z,25.40
2018-06-01T14:36:05.088Z,25.40
2018-06-01T14:38:32.068Z,25.30
2018-06-01T14:41:02.249Z,25.20
2018-06-01T14:43:29.004Z,25.30
2018-06-01T14:45:56.808Z,25.10
2018-06-01T14:48:23.464Z,25.00
2018-06-01T14:50:51.090Z,25.10
2018-06-01T14:53:17.909Z,25.20
2018-06-01T14:55:44.536Z,25.40
2018-06-01T14:58:11.281Z,25.10
2018-06-01T15:00:38.032Z,24.20
2018-06-01T15:03:04.789Z,24.50
2018-06-01T15:05:31.452Z,24.90
2018-06-01T15:07:59.022Z,24.90
2018-06-01T15:10:26.616Z,23.90
2018-06-01T15:12:55.293Z,23.60
2018-06-01T15:15:24.021Z,23.40
2018-06-01T15:17:50.796Z,23.40
2018-06-01T15:20:18.360Z,23.50
2018-06-01T15:22:48.881Z,23.50
2018-06-01T15:25:15.603Z,23.60
2018-06-01T15:27:42.344Z,23.80
2018-06-01T15:30:10.465Z,24.40
2018-06-01T15:32:37.175Z,24.30
2018-06-01T15:35:03.944Z,24.60
2018-06-01T15:37:30.801Z,25.30
2018-06-01T15:39:57.552Z,25.40
2018-06-01T15:42:24.953Z,25.20
2018-06-01T15:44:52.929Z,24.40
2018-06-01T15:47:21.283Z,23.80
2018-06-01T15:49:48.011Z,23.80
2018-06-01T15:52:14.680Z,23.80
2018-06-01T15:54:42.036Z,23.80
2018-06-01T15:57:08.695Z,23.80
2018-06-01T15:59:35.412Z,23.70
2018-06-01T16:02:02.279Z,23.70
2018-06-01T16:04:29.056Z,23.60
2018-06-01T16:06:55.733Z,23.80
2018-06-01T16:09:23.242Z,23.90
2018-06-01T16:11:56.467Z,23.90
2018-06-01T16:14:24.174Z,24.40
2018-06-01T16:16:50.804Z,24.30
2018-06-01T16:19:17.561Z,24.30
2018-06-01T16:21:45.103Z,24.30
2018-06-01T16:24:11.993Z,24.30
2018-06-01T16:26:38.745Z,24.40
2018-06-01T16:29:05.441Z,24.60
2018-06-01T16:31:32.986Z,23.90
2018-06-01T16:33:59.776Z,23.90
2018-06-01T16:36:26.578Z,24.20
2018-06-01T16:38:53.333Z,24.10
2018-06-01T16:41:20.097Z,24.70
2018-06-01T16:43:46.829Z,25.00
2018-06-01T16:46:13.532Z,24.80
2018-06-01T16:48:40.344Z,24.30
2018-06-01T16:51:09.043Z,24.20
2018-06-01T16:53:35.680Z,24.40
2018-06-01T16:56:03.689Z,24.60
2018-06-01T16:58:30.441Z,24.30
2018-06-01T17:00:58.160Z,24.50
2018-06-01T17:03:24.993Z,24.40
2018-06-01T17:05:51.792Z,24.20
2018-06-01T17:08:18.465Z,24.90
2018-06-01T17:10:45.927Z,25.70
2018-06-01T17:13:12.892Z,25.70
2018-06-01T17:15:40.637Z,25.20
2018-06-01T17:18:07.253Z,25.20
2018-06-01T17:20:35.107Z,24.80
2018-06-01T17:23:01.948Z,25.00
2018-06-01T17:25:29.241Z,25.10
2018-06-01T17:27:56.496Z,25.00
2018-06-01T17:30:23.952Z,25.10
2018-06-01T17:32:50.706Z,25.10
2018-06-01T17:35:18.445Z,24.60
2018-06-01T17:37:45.133Z,24.20
2018-06-01T17:40:12.382Z,23.70
2018-06-01T17:42:39.163Z,23.30
2018-06-01T17:45:06.582Z,23.20
2018-06-01T17:47:33.376Z,22.90
2018-06-01T17:49:59.917Z,23.10
2018-06-01T17:52:26.570Z,23.20
2018-06-01T17:54:53.284Z,23.70
2018-06-01T17:57:20.664Z,23.30
2018-06-01T17:59:47.327Z,23.30
2018-06-01T18:02:15.313Z,23.60
2018-06-01T18:04:41.960Z,23.50
2018-06-01T18:07:08.725Z,24.20
2018-06-01T18:09:36.240Z,23.40
2018-06-01T18:12:03.509Z,23.30
2018-06-01T18:14:30.280Z,23.20
2018-06-01T18:16:57.063Z,23.20
2018-06-01T18:19:23.812Z,23.00
2018-06-01T18:21:50.558Z,22.90
2018-06-01T18:24:17.232Z,22.80
2018-06-01T18:26:43.983Z,22.60
2018-06-01T18:29:10.693Z,22.30
2018-06-01T18:31:37.340Z,22.00
2018-06-01T18:34:12.528Z,21.80
2018-06-01T18:36:39.188Z,21.50
2018-06-01T18:39:06.931Z,21.40
2018-06-01T18:41:33.733Z,21.30
2018-06-01T18:44:01.612Z,21.20
2018-06-01T18:46:31.893Z,21.10
2018-06-01T18:49:10.652Z,21.10
2018-06-01T18:51:37.421Z,21.00
2018-06-01T18:54:04.176Z,21.00
2018-06-01T18:56:32.552Z,20.90
2018-06-01T18:59:03.118Z,20.80
2018-06-01T19:01:35.519Z,20.70
2018-06-01T19:04:03.263Z,20.70
2018-06-01T19:06:33.508Z,20.60
2018-06-01T19:09:02.327Z,20.60
2018-06-01T19:11:36.433Z,20.50
2018-06-01T19:14:10.818Z,20.40
2018-06-01T19:16:37.512Z,20.40
2018-06-01T19:19:06.097Z,20.30
2018-06-01T19:21:34.788Z,20.20
2018-06-01T19:24:05.431Z,20.10
2018-06-01T19:26:38.117Z,20.10
2018-06-01T19:29:06.725Z,20.10
2018-06-01T19:31:40.246Z,20.00
2018-06-01T19:34:07.650Z,20.00
2018-06-01T19:36:39.163Z,20.00
2018-06-01T19:39:05.833Z,19.80
2018-06-01T19:41:32.454Z,19.80
2018-06-01T19:44:09.508Z,19.90
2018-06-01T19:46:39.897Z,19.70
2018-06-01T19:49:06.568Z,19.70
2018-06-01T19:51:33.217Z,19.60
2018-06-01T19:53:59.940Z,19.50
2018-06-01T19:56:26.697Z,19.50
2018-06-01T19:58:53.363Z,19.40
2018-06-01T20:01:23.696Z,19.40
2018-06-01T20:03:50.337Z,19.40
2018-06-01T20:06:17.105Z,19.30
2018-06-01T20:08:45.580Z,19.30
2018-06-01T20:11:13.260Z,19.30
2018-06-01T20:13:40.436Z,19.30
2018-06-01T20:16:08.822Z,19.30
2018-06-01T20:18:36.593Z,19.30
2018-06-01T20:21:04.097Z,19.20
2018-06-01T20:23:30.800Z,19.30
2018-06-01T20:25:58.584Z,19.20
2018-06-01T20:28:29.140Z,19.10
2018-06-01T20:30:55.815Z,19.00
2018-06-01T20:33:24.485Z,19.00
2018-06-01T20:35:51.236Z,19.00
2018-06-01T20:38:17.980Z,19.00
2018-06-01T20:40:44.732Z,19.00
2018-06-01T20:43:16.207Z,19.00
2018-06-01T20:45:42.957Z,19.10
2018-06-01T20:48:09.704Z,19.00
2018-06-01T20:50:36.452Z,18.80
2018-06-01T20:53:03.201Z,18.80
2018-06-01T20:55:29.960Z,18.80
2018-06-01T20:57:56.708Z,18.80
2018-06-01T21:00:24.117Z,18.80
2018-06-01T21:02:50.849Z,18.80
2018-06-01T21:05:20.681Z,18.90
2018-06-01T21:07:48.108Z,18.80
2018-06-01T21:10:14.933Z,18.80
2018-06-01T21:12:43.573Z,18.80
2018-06-01T21:15:10.333Z,18.70
2018-06-01T21:17:40.366Z,18.50
2018-06-01T21:20:08.761Z,18.50
2018-06-01T21:22:36.138Z,18.40
2018-06-01T21:25:02.889Z,18.40
2018-06-01T21:27:29.616Z,18.40
2018-06-01T21:29:59.748Z,18.40
2018-06-01T21:32:28.361Z,18.40
2018-06-01T21:34:55.723Z,18.30
2018-06-01T21:37:22.474Z,18.30
2018-06-01T21:39:49.139Z,18.30
2018-06-01T21:42:16.896Z,18.40
2018-06-01T21:44:43.654Z,18.40
2018-06-01T21:47:11.415Z,18.40
2018-06-01T21:49:38.099Z,18.30
2018-06-01T21:52:04.764Z,18.30
2018-06-01T21:54:31.484Z,18.10
2018-06-01T21:57:00.305Z,18.00
2018-06-01T21:59:30.730Z,17.90
2018-06-01T22:01:59.216Z,17.90
2018-06-01T22:04:28.636Z,17.80
2018-06-01T22:06:56.129Z,17.80
2018-06-01T22:09:22.851Z,17.80
2018-06-01T22:11:49.419Z,17.70
2018-06-01T22:14:20.791Z,17.80
2018-06-01T22:16:50.181Z,17.80
2018-06-01T22:19:16.976Z,17.90
2018-06-01T22:21:43.696Z,17.90
2018-06-01T22:24:10.443Z,18.00
2018-06-01T22:26:39.348Z,17.90
2018-06-01T22:29:10.085Z,17.90
2018-06-01T22:31:36.836Z,17.90
2018-06-01T22:34:03.624Z,17.90
2018-06-01T22:36:30.364Z,17.90
2018-06-01T22:38:59.040Z,18.00
2018-06-01T22:41:25.814Z,18.00
2018-06-01T22:43:52.541Z,18.00
2018-06-01T22:46:22.180Z,18.00
2018-06-01T22:48:49.013Z,18.10
2018-06-01T22:51:17.612Z,17.90
2018-06-01T22:53:44.284Z,17.70
2018-06-01T22:56:11.945Z,17.70
2018-06-01T22:58:41.973Z,17.60
2018-06-01T23:01:09.649Z,17.60
2018-06-01T23:03:36.322Z,17.60
2018-06-01T23:06:03.664Z,17.50
2018-06-01T23:08:30.424Z,17.60
2018-06-01T23:10:57.692Z,17.80
2018-06-01T23:13:24.352Z,17.60
2018-06-01T23:15:51.069Z,17.60
2018-06-01T23:18:17.736Z,17.70
2018-06-01T23:20:45.508Z,17.70
2018-06-01T23:23:12.188Z,17.70
2018-06-01T23:25:39.532Z,17.30
2018-06-01T23:28:06.284Z,17.30
2018-06-01T23:30:33.769Z,17.30
2018-06-01T23:33:00.500Z,17.30
2018-06-01T23:35:31.686Z,17.20
2018-06-01T23:37:59.446Z,17.20
2018-06-01T23:40:28.141Z,17.30
2018-06-01T23:42:55.804Z,17.30
2018-06-01T23:45:22.625Z,17.30
2018-06-01T23:47:49.335Z,17.20
2018-06-01T23:50:17.084Z,17.00
2018-06-01T23:52:46.300Z,17.00
2018-06-01T23:55:16.741Z,17.00
2018-06-01T23:57:45.437Z,17.00
